Time;durP1;ratioP1;P1;durP2;ratioP2;P2;SDS_P1;SDS_P2;PMS_P1;PMS_P2;Temp;Humidity;BMP_temperature;BMP_pressure;BME280_temperature;BME280_humidity;BME280_pressure;Samples;Min_cycle;Max_cycle;Signal;HPM_P1;HPM_P2
2023/09/07 00:01:20;;;;;;;6.1;5;;;;;;;;;;;;;
2023/09/07 00:03:46;;;;;;;7.3;4.8;;;;;;;;;;;;;
2023/09/07 00:06:11;;;;;;;8.4;4.8;;;;;;;;;;;;;
2023/09/07 00:08:37;;;;;;;5;4.5;;;;;;;;;;;;;
2023/09/07 00:11:03;;;;;;;4.8;4.2;;;;;;;;;;;;;
2023/09/07 00:13:29;;;;;;;6.5;5;;;;;;;;;;;;;
2023/09/07 00:15:54;;;;;;;5.4;4.7;;;;;;;;;;;;;
2023/09/07 00:18:21;;;;;;;6;5.1;;;;;;;;;;;;;
2023/09/07 00:20:46;;;;;;;6.9;4.7;;;;;;;;;;;;;
2023/09/07 00:23:11;;;;;;;8.7;5.2;;;;;;;;;;;;;
2023/09/07 00:25:36;;;;;;;8.5;5.1;;;;;;;;;;;;;
2023/09/07 00:28:04;;;;;;;7.5;5.1;;;;;;;;;;;;;
2023/09/07 00:30:29;;;;;;;5.1;4.6;;;;;;;;;;;;;
2023/09/07 00:32:54;;;;;;;5.1;4.6;;;;;;;;;;;;;
2023/09/07 00:35:21;;;;;;;7.4;4.7;;;;;;;;;;;;;
2023/09/07 00:37:45;;;;;;;7.2;4.9;;;;;;;;;;;;;
2023/09/07 00:40:10;;;;;;;6.4;4.9;;;;;;;;;;;;;
2023/09/07 00:42:37;;;;;;;5.5;4.6;;;;;;;;;;;;;
2023/09/07 00:45:01;;;;;;;6.2;5.3;;;;;;;;;;;;;
2023/09/07 00:47:30;;;;;;;5.7;4.7;;;;;;;;;;;;;
2023/09/07 00:49:55;;;;;;;6.5;4.6;;;;;;;;;;;;;
2023/09/07 00:52:21;;;;;;;5.8;5;;;;;;;;;;;;;
2023/09/07 00:54:45;;;;;;;6.6;5;;;;;;;;;;;;;
2023/09/07 00:57:13;;;;;;;5.6;4.8;;;;;;;;;;;;;
2023/09/07 00:59:38;;;;;;;6.7;5.2;;;;;;;;;;;;;
2023/09/07 01:02:05;;;;;;;7;5.1;;;;;;;;;;;;;
2023/09/07 01:04:28;;;;;;;5.8;4.5;;;;;;;;;;;;;
2023/09/07 01:06:54;;;;;;;6.2;4.5;;;;;;;;;;;;;
2023/09/07 01:09:19;;;;;;;6.1;4.7;;;;;;;;;;;;;
2023/09/07 01:11:43;;;;;;;5.8;5;;;;;;;;;;;;;
2023/09/07 01:14:09;;;;;;;6.8;4.9;;;;;;;;;;;;;
2023/09/07 01:16:40;;;;;;;6.4;4.6;;;;;;;;;;;;;
2023/09/07 01:24:15;;;;;;;5.7;4.7;;;;;;;;;;;;;
2023/09/07 01:26:42;;;;;;;5.7;4.6;;;;;;;;;;;;;
2023/09/07 01:29:06;;;;;;;5.7;4.9;;;;;;;;;;;;;
2023/09/07 01:31:31;;;;;;;5;4.5;;;;;;;;;;;;;
2023/09/07 01:33:56;;;;;;;5.9;4.7;;;;;;;;;;;;;
2023/09/07 01:36:22;;;;;;;5.8;4.5;;;;;;;;;;;;;
2023/09/07 01:38:47;;;;;;;5.1;4.6;;;;;;;;;;;;;
2023/09/07 01:41:15;;;;;;;5.6;4.7;;;;;;;;;;;;;
2023/09/07 01:43:40;;;;;;;6.2;4.3;;;;;;;;;;;;;
2023/09/07 01:46:05;;;;;;;6.8;4.8;;;;;;;;;;;;;
2023/09/07 01:48:30;;;;;;;7.7;5.1;;;;;;;;;;;;;
2023/09/07 01:50:56;;;;;;;6;4.7;;;;;;;;;;;;;
2023/09/07 01:53:21;;;;;;;7.5;5;;;;;;;;;;;;;
2023/09/07 01:55:47;;;;;;;6.1;4.7;;;;;;;;;;;;;
2023/09/07 01:58:12;;;;;;;6.1;4.8;;;;;;;;;;;;;
2023/09/07 02:00:38;;;;;;;5.1;4.6;;;;;;;;;;;;;
2023/09/07 02:03:03;;;;;;;6.1;5;;;;;;;;;;;;;
2023/09/07 02:05:29;;;;;;;5.7;4.9;;;;;;;;;;;;;
2023/09/07 02:07:54;;;;;;;6.6;5.3;;;;;;;;;;;;;
2023/09/07 02:10:21;;;;;;;7.6;4.8;;;;;;;;;;;;;
2023/09/07 02:12:46;;;;;;;5.1;4.4;;;;;;;;;;;;;
2023/09/07 02:15:14;;;;;;;5.2;4.7;;;;;;;;;;;;;
2023/09/07 02:17:39;;;;;;;4.9;4.2;;;;;;;;;;;;;
2023/09/07 02:20:10;;;;;;;7.6;4.7;;;;;;;;;;;;;
2023/09/07 02:22:30;;;;;;;6;4.8;;;;;;;;;;;;;
2023/09/07 02:24:57;;;;;;;5.7;4.7;;;;;;;;;;;;;
2023/09/07 02:27:22;;;;;;;5.1;4.6;;;;;;;;;;;;;
2023/09/07 02:29:48;;;;;;;7.7;4.8;;;;;;;;;;;;;
2023/09/07 02:32:13;;;;;;;5.4;4.5;;;;;;;;;;;;;
2023/09/07 02:34:38;;;;;;;5.4;4.3;;;;;;;;;;;;;
2023/09/07 02:37:04;;;;;;;4.4;4;;;;;;;;;;;;;
2023/09/07 02:39:30;;;;;;;7.2;4.7;;;;;;;;;;;;;
2023/09/07 02:41:55;;;;;;;5.3;4.8;;;;;;;;;;;;;
2023/09/07 02:44:21;;;;;;;5.7;4.5;;;;;;;;;;;;;
2023/09/07 02:46:46;;;;;;;5;4.5;;;;;;;;;;;;;
2023/09/07 02:49:12;;;;;;;6.7;4.7;;;;;;;;;;;;;
2023/09/07 02:51:37;;;;;;;6;4.4;;;;;;;;;;;;;
2023/09/07 02:54:02;;;;;;;5.8;4.7;;;;;;;;;;;;;
2023/09/07 02:56:27;;;;;;;5.9;4.7;;;;;;;;;;;;;
2023/09/07 02:58:52;;;;;;;5.3;4.2;;;;;;;;;;;;;
2023/09/07 03:01:20;;;;;;;6.4;4.8;;;;;;;;;;;;;
2023/09/07 03:03:43;;;;;;;6.6;4.5;;;;;;;;;;;;;
2023/09/07 03:06:10;;;;;;;5.9;4.6;;;;;;;;;;;;;
2023/09/07 03:08:34;;;;;;;5;4.1;;;;;;;;;;;;;
2023/09/07 03:11:00;;;;;;;6.1;4.8;;;;;;;;;;;;;
2023/09/07 03:13:25;;;;;;;5.8;4.7;;;;;;;;;;;;;
2023/09/07 03:15:52;;;;;;;8;4.9;;;;;;;;;;;;;
2023/09/07 03:18:17;;;;;;;6.2;5.1;;;;;;;;;;;;;
2023/09/07 03:20:43;;;;;;;9;5.7;;;;;;;;;;;;;
2023/09/07 03:23:08;;;;;;;6.3;4.9;;;;;;;;;;;;;
2023/09/07 03:25:33;;;;;;;9.3;6.2;;;;;;;;;;;;;
2023/09/07 03:27:58;;;;;;;8;5.3;;;;;;;;;;;;;
2023/09/07 03:30:25;;;;;;;6.4;5;;;;;;;;;;;;;
2023/09/07 03:32:50;;;;;;;7.3;5.1;;;;;;;;;;;;;
2023/09/07 03:35:18;;;;;;;6.5;4.7;;;;;;;;;;;;;
2023/09/07 03:37:43;;;;;;;5.4;4.6;;;;;;;;;;;;;
2023/09/07 03:40:11;;;;;;;6.2;4.7;;;;;;;;;;;;;
2023/09/07 03:42:35;;;;;;;7.3;4.7;;;;;;;;;;;;;
2023/09/07 03:45:00;;;;;;;5.6;4.9;;;;;;;;;;;;;
2023/09/07 03:47:28;;;;;;;6.2;4.6;;;;;;;;;;;;;
2023/09/07 03:49:50;;;;;;;5.8;4.8;;;;;;;;;;;;;
2023/09/07 03:52:16;;;;;;;5.5;4.7;;;;;;;;;;;;;
2023/09/07 03:54:41;;;;;;;6.7;4.7;;;;;;;;;;;;;
2023/09/07 03:57:07;;;;;;;6.6;5;;;;;;;;;;;;;
2023/09/07 03:59:32;;;;;;;8.6;7.8;;;;;;;;;;;;;
2023/09/07 04:02:33;;;;;;;5.7;5.2;;;;;;;15;95.28223;940.962;;;;
2023/09/07 04:04:58;;;;;;;7;4.8;;;;;;;14.74;96.62207;940.8926;;;;
2023/09/07 04:07:24;;;;;;;5.7;4.9;;;;;;;14.8;96.23047;940.9431;;;;
2023/09/07 04:09:48;;;;;;;7.4;5;;;;;;;14.7;96.93652;940.9922;;;;
2023/09/07 04:12:14;;;;;;;5.7;4.7;;;;;;;14.68;97.30176;940.965;;;;
2023/09/07 04:14:40;;;;;;;6.1;4.7;;;;;;;14.7;97.32617;940.9714;;;;
2023/09/07 04:17:04;;;;;;;6.1;5.1;;;;;;;14.76;96.34863;941.0322;;;;
2023/09/07 04:19:35;;;;;;;6.6;4.8;;;;;;;14.79;96.04395;941.0553;;;;
2023/09/07 04:22:02;;;;;;;5.7;4.9;;;;;;;14.79;96.02051;941.0626;;;;
2023/09/07 04:24:27;;;;;;;6.1;4.6;;;;;;;14.87;95.12988;941.0474;;;;
2023/09/07 04:26:55;;;;;;;7.4;4.8;;;;;;;14.82;95.72852;940.9465;;;;
2023/09/07 04:29:20;;;;;;;6.3;4.5;;;;;;;14.7;96.01465;941.0756;;;;
2023/09/07 04:31:50;;;;;;;6;4.5;;;;;;;14.75;95.8877;941.106;;;;
2023/09/07 04:34:15;;;;;;;8.9;5.3;;;;;;;14.76;94.9082;941.0939;;;;
2023/09/07 04:36:41;;;;;;;5.8;4.8;;;;;;;14.85;94.11035;941.1566;;;;
2023/09/07 04:39:06;;;;;;;6.4;4.5;;;;;;;14.82;94.7002;941.1558;;;;
2023/09/07 04:41:33;;;;;;;5.9;4.6;;;;;;;14.79;94.81055;941.1539;;;;
2023/09/07 04:43:58;;;;;;;6;5.1;;;;;;;14.51;96.84668;941.1845;;;;
2023/09/07 04:46:25;;;;;;;7.1;5.2;;;;;;;14.49;97.52246;941.2191;;;;
2023/09/07 04:48:50;;;;;;;8.7;5.4;;;;;;;14.43;98.29395;941.2308;;;;
2023/09/07 04:51:17;;;;;;;6.8;4.9;;;;;;;14.45;98.29785;941.2463;;;;
2023/09/07 04:53:42;;;;;;;6.2;5.1;;;;;;;14.54;97.43066;941.2935;;;;
2023/09/07 04:56:08;;;;;;;7.3;4.8;;;;;;;14.59;97.00293;941.3135;;;;
2023/09/07 04:58:33;;;;;;;5.1;4.6;;;;;;;14.63;96.42285;941.3314;;;;
2023/09/07 05:01:00;;;;;;;7.2;5;;;;;;;14.69;96.01074;941.3714;;;;
2023/09/07 05:03:25;;;;;;;6.8;5.1;;;;;;;14.77;95.50977;941.3585;;;;
2023/09/07 05:05:52;;;;;;;6.5;5.7;;;;;;;14.81;94.96582;941.3471;;;;
2023/09/07 05:08:18;;;;;;;7.3;4.8;;;;;;;14.68;95.43359;941.3562;;;;
2023/09/07 05:10:45;;;;;;;5.8;5;;;;;;;14.67;95.54492;941.3417;;;;
2023/09/07 05:13:10;;;;;;;5.5;4.7;;;;;;;14.71;95.38184;941.2654;;;;
2023/09/07 05:15:41;;;;;;;5.7;4.6;;;;;;;14.71;95.32422;941.296;;;;
2023/09/07 05:18:07;;;;;;;6.3;4.7;;;;;;;14.67;95.64941;941.2736;;;;
2023/09/07 05:20:32;;;;;;;6.3;4.4;;;;;;;14.72;95.23242;941.324;;;;
2023/09/07 05:22:59;;;;;;;6;4.5;;;;;;;14.79;94.89063;941.3568;;;;
2023/09/07 05:25:23;;;;;;;5.4;4.5;;;;;;;14.76;95;941.3376;;;;
2023/09/07 05:27:51;;;;;;;6.9;4.6;;;;;;;14.75;95.29785;941.3729;;;;
2023/09/07 05:30:16;;;;;;;6.1;4.7;;;;;;;14.66;95.66992;941.3409;;;;
2023/09/07 05:32:44;;;;;;;6.6;4.9;;;;;;;14.57;96.13477;941.4185;;;;
2023/09/07 05:35:10;;;;;;;6;4.9;;;;;;;14.49;97.4873;941.4041;;;;
2023/09/07 05:37:35;;;;;;;6;5.1;;;;;;;14.53;98.46582;941.372;;;;
2023/09/07 05:40:00;;;;;;;6.2;4.7;;;;;;;14.76;97.91699;941.433;;;;
2023/09/07 05:42:28;;;;;;;6.8;5.1;;;;;;;15.03;97.59668;941.3914;;;;
2023/09/07 05:44:54;;;;;;;7.1;5.5;;;;;;;15.63;97.52246;941.4745;;;;
2023/09/07 05:47:26;;;;;;;5.2;4.5;;;;;;;16.23;95.12402;941.4116;;;;
2023/09/07 05:49:48;;;;;;;6;4.3;;;;;;;16.68;91.33105;941.4433;;;;
2023/09/07 05:52:13;;;;;;;5.8;4.5;;;;;;;17.63;87.95605;941.4313;;;;
2023/09/07 05:54:38;;;;;;;7.7;4.8;;;;;;;18.85;79.74902;941.3953;;;;
2023/09/07 05:57:04;;;;;;;7;4.2;;;;;;;20;75.0918;941.4553;;;;
2023/09/07 05:59:30;;;;;;;12.4;6.2;;;;;;;20.82;70.04102;941.3801;;;;
2023/09/07 06:01:57;;;;;;;12.8;6.4;;;;;;;21.05;68.10156;941.3934;;;;
2023/09/07 06:04:22;;;;;;;11.4;7.5;;;;;;;20.84;68.39551;941.3945;;;;
2023/09/07 06:06:48;;;;;;;9.9;6.1;;;;;;;20.88;68.78809;941.412;;;;
2023/09/07 06:09:13;;;;;;;6.9;4.6;;;;;;;21.09;68.27148;941.394;;;;
2023/09/07 06:11:39;;;;;;;5.9;4.1;;;;;;;21.39;66.63184;941.3672;;;;
2023/09/07 06:14:05;;;;;;;6.4;3.7;;;;;;;21.71;66.36426;941.3798;;;;
2023/09/07 06:16:31;;;;;;;7.1;4.3;;;;;;;21.07;68.24512;941.392;;;;
2023/09/07 06:18:56;;;;;;;8.5;4.2;;;;;;;21.8;65.7207;941.3369;;;;
2023/09/07 06:21:26;;;;;;;8.2;4.5;;;;;;;22.35;63.82129;941.3337;;;;
2023/09/07 06:23:50;;;;;;;9.1;5;;;;;;;22.37;63.72949;941.3346;;;;
2023/09/07 06:26:17;;;;;;;9.4;5.5;;;;;;;22.29;63.83496;941.3159;;;;
2023/09/07 06:28:42;;;;;;;6.6;4.7;;;;;;;22.37;63.69434;941.2925;;;;
2023/09/07 06:31:09;;;;;;;8.1;4.6;;;;;;;23.11;61.70898;941.3304;;;;
2023/09/07 06:33:34;;;;;;;5.3;4.1;;;;;;;22.64;62.90039;941.3761;;;;
2023/09/07 06:36:01;;;;;;;5.5;4.1;;;;;;;22.28;63.62207;941.3245;;;;
2023/09/07 06:38:24;;;;;;;5.6;4.4;;;;;;;22.47;63.41504;941.2733;;;;
2023/09/07 06:40:51;;;;;;;5.6;4.2;;;;;;;22.59;62.52832;941.3564;;;;
2023/09/07 06:43:16;;;;;;;4.2;3.6;;;;;;;22.37;63.28418;941.3328;;;;
2023/09/07 06:45:46;;;;;;;5.4;3.9;;;;;;;21.89;64.93848;941.3328;;;;
2023/09/07 06:48:12;;;;;;;5;3.8;;;;;;;21.85;65.18945;941.3422;;;;
2023/09/07 06:50:36;;;;;;;4.4;3.8;;;;;;;21.81;66.27344;941.2319;;;;
2023/09/07 06:53:02;;;;;;;5.1;4;;;;;;;21.81;65.91016;941.2756;;;;
2023/09/07 06:55:26;;;;;;;6.1;4.1;;;;;;;22.46;64.69141;941.2184;;;;
2023/09/07 06:57:51;;;;;;;6.3;3.9;;;;;;;22.93;63.92773;941.1885;;;;
2023/09/07 07:00:18;;;;;;;5.1;3.7;;;;;;;23.04;62.56836;941.2045;;;;
2023/09/07 07:02:42;;;;;;;5.8;4;;;;;;;22.45;63.91699;941.2473;;;;
2023/09/07 07:05:23;;;;;;;4.2;3.7;;;;;;;23.01;62.45898;941.2141;;;;
2023/09/07 07:07:47;;;;;;;5.8;4;;;;;;;23.53;61.10938;941.1944;;;;
2023/09/07 07:10:20;;;;;;;4.9;3.9;;;;;;;24.17;58.63965;941.2437;;;;
2023/09/07 07:12:48;;;;;;;4.9;4;;;;;;;24.83;57.5;941.1317;;;;
2023/09/07 07:15:13;;;;;;;4.9;3.9;;;;;;;25.24;55.25195;941.1853;;;;
2023/09/07 07:17:40;;;;;;;4.7;3.9;;;;;;;25.23;54.3418;941.1229;;;;
2023/09/07 07:20:05;;;;;;;4.5;3.5;;;;;;;26.2;50.88574;941.162;;;;
2023/09/07 07:22:35;;;;;;;5.9;4;;;;;;;26.72;49.66504;941.1572;;;;
2023/09/07 07:25:05;;;;;;;4;3.6;;;;;;;25.01;53.14551;941.1816;;;;
2023/09/07 07:27:30;;;;;;;4.7;3.7;;;;;;;26.07;52.14844;941.1409;;;;
2023/09/07 07:29:56;;;;;;;3.9;3.6;;;;;;;26.8;53.13477;941.104;;;;
2023/09/07 07:32:25;;;;;;;3.6;3.2;;;;;;;28.36;47.64844;941.1456;;;;
2023/09/07 07:34:50;;;;;;;4;3.6;;;;;;;27.87;46.25488;941.1555;;;;
2023/09/07 07:37:17;;;;;;;3.9;3.5;;;;;;;27.14;47.04492;941.1569;;;;
2023/09/07 07:39:42;;;;;;;3.9;3.4;;;;;;;28.78;44.44434;941.1527;;;;
2023/09/07 07:42:07;;;;;;;3.7;3.4;;;;;;;29.11;43.85645;941.1992;;;;
2023/09/07 07:46:57;;;;;;;4;3.6;;;;;;;30.17;40.80859;941.1333;;;;
2023/09/07 07:49:21;;;;;;;4.7;3.7;;;;;;;30.67;40.08984;941.137;;;;
2023/09/07 07:51:47;;;;;;;4.5;3.4;;;;;;;30.1;40.4209;941.0887;;;;
2023/09/07 07:54:12;;;;;;;4.1;3.4;;;;;;;29.87;42.2373;941.0905;;;;
2023/09/07 07:56:38;;;;;;;4.3;3.5;;;;;;;29.31;42.625;941.0914;;;;
2023/09/07 07:59:03;;;;;;;3.5;3.2;;;;;;;28.62;45.04688;941.1076;;;;
2023/09/07 08:01:31;;;;;;;5.2;3.5;;;;;;;28.41;44.83594;941.0822;;;;
2023/09/07 08:03:56;;;;;;;4.6;3.4;;;;;;;28.05;46.42676;941.0103;;;;
2023/09/07 08:06:23;;;;;;;4.2;3.5;;;;;;;28.44;46.55078;941.0454;;;;
2023/09/07 08:08:48;;;;;;;5.3;3.3;;;;;;;28.25;46.31738;941.0106;;;;
2023/09/07 08:11:14;;;;;;;3.7;3.3;;;;;;;28;47.46777;940.9365;;;;
2023/09/07 08:13:39;;;;;;;4.3;3.5;;;;;;;27.51;46.25293;940.9447;;;;
2023/09/07 08:16:09;;;;;;;5.1;3.7;;;;;;;28.22;46.82422;940.9022;;;;
2023/09/07 08:18:34;;;;;;;4.2;3.4;;;;;;;28.45;47.70508;940.9281;;;;
2023/09/07 08:20:59;;;;;;;5;3.6;;;;;;;27.25;50.58984;940.9326;;;;
2023/09/07 08:23:28;;;;;;;4;3.6;;;;;;;27.19;49.31445;940.9211;;;;
2023/09/07 08:25:54;;;;;;;4;3.6;;;;;;;26.91;50.2207;940.8872;;;;
2023/09/07 08:28:18;;;;;;;4.4;3.4;;;;;;;26.61;52.29492;940.8915;;;;
2023/09/07 08:30:44;;;;;;;4.5;3.8;;;;;;;27.48;50.7334;940.8596;;;;
2023/09/07 08:33:09;;;;;;;4.3;3.6;;;;;;;27.74;49.06641;940.8463;;;;
2023/09/07 08:35:43;;;;;;;4.1;3.6;;;;;;;27.54;49.30566;940.8653;;;;
2023/09/07 08:38:04;;;;;;;5.6;3.6;;;;;;;28.05;47.55566;940.8976;;;;
2023/09/07 08:40:27;;;;;;;4.1;3.7;;;;;;;28.15;48.25586;940.9437;;;;
2023/09/07 08:42:53;;;;;;;4;3.7;;;;;;;28.39;45.62988;940.8267;;;;
2023/09/07 08:45:18;;;;;;;4.4;3.6;;;;;;;27.81;48.9668;940.8297;;;;
2023/09/07 08:47:43;;;;;;;4.4;3.6;;;;;;;27.81;48.12402;940.8142;;;;
2023/09/07 08:50:10;;;;;;;4.3;3.7;;;;;;;27.58;48.81055;940.8307;;;;
2023/09/07 08:52:35;;;;;;;4.9;3.8;;;;;;;27.8;50.27246;940.8513;;;;
2023/09/07 08:55:04;;;;;;;3.9;3.5;;;;;;;27.67;47.75195;940.8618;;;;
2023/09/07 08:57:27;;;;;;;4.1;3.6;;;;;;;28.71;45.63965;940.8059;;;;
2023/09/07 08:59:53;;;;;;;4.4;3.7;;;;;;;29.28;45.71973;940.8326;;;;
2023/09/07 09:02:18;;;;;;;5;3.8;;;;;;;28.77;47.12012;940.8611;;;;
2023/09/07 09:04:45;;;;;;;5.2;3.7;;;;;;;28.57;47.46777;940.9016;;;;
2023/09/07 09:07:11;;;;;;;4.1;3.7;;;;;;;28.29;47.74707;940.8284;;;;
2023/09/07 09:09:40;;;;;;;4.3;3.4;;;;;;;27.95;49.64648;940.8111;;;;
2023/09/07 09:12:04;;;;;;;5.2;3.9;;;;;;;27.91;48.33594;940.8042;;;;
2023/09/07 09:14:30;;;;;;;4.9;3.7;;;;;;;27.92;50.81934;940.8281;;;;
2023/09/07 09:16:55;;;;;;;4.9;3.5;;;;;;;27.78;47.00488;940.7868;;;;
2023/09/07 09:19:20;;;;;;;5.2;3.7;;;;;;;27.85;49.60059;940.8058;;;;
2023/09/07 09:21:45;;;;;;;4;3.7;;;;;;;27.36;49.78418;940.7629;;;;
2023/09/07 09:24:11;;;;;;;5.1;3.9;;;;;;;27.09;51.41406;940.7399;;;;
2023/09/07 09:26:36;;;;;;;5;3.9;;;;;;;26.67;52.12402;940.7397;;;;
2023/09/07 09:29:01;;;;;;;5.4;3.5;;;;;;;26.31;56.22363;940.7766;;;;
2023/09/07 09:31:29;;;;;;;5.2;4.4;;;;;;;26.46;53.44824;940.7277;;;;
2023/09/07 09:33:53;;;;;;;5.7;4.9;;;;;;;26.53;53.39746;940.7086;;;;
2023/09/07 09:36:21;;;;;;;4.1;3.5;;;;;;;26.72;58.80957;940.6638;;;;
2023/09/07 09:38:46;;;;;;;17.1;8.1;;;;;;;26.65;54.41992;940.6448;;;;
2023/09/07 09:41:12;;;;;;;4.2;3.8;;;;;;;26.69;59.41016;940.6976;;;;
2023/09/07 09:43:37;;;;;;;17.4;8.1;;;;;;;26.55;56.28809;940.6671;;;;
2023/09/07 09:46:03;;;;;;;22.2;9.4;;;;;;;26.36;54.41797;940.6415;;;;
2023/09/07 09:48:28;;;;;;;28.3;11.6;;;;;;;26.12;54.92188;940.634;;;;
2023/09/07 09:50:55;;;;;;;12.8;6.8;;;;;;;26.14;55.8125;940.5972;;;;
2023/09/07 09:53:20;;;;;;;14.1;7.1;;;;;;;26.3;57.92676;940.6122;;;;
2023/09/07 09:55:46;;;;;;;18.9;9.3;;;;;;;26.74;54.80762;940.6169;;;;
2023/09/07 09:58:10;;;;;;;5.9;4.4;;;;;;;26.96;52.83301;940.62;;;;
2023/09/07 10:00:37;;;;;;;3.8;3.5;;;;;;;27.07;53.46191;940.6404;;;;
2023/09/07 10:03:02;;;;;;;4.3;3.7;;;;;;;27.27;53.6875;940.5798;;;;
2023/09/07 10:05:27;;;;;;;4.5;3.9;;;;;;;26.91;59.23828;940.6184;;;;
2023/09/07 10:07:52;;;;;;;5;4.1;;;;;;;26.87;57.75098;940.5652;;;;
2023/09/07 10:10:19;;;;;;;4.3;3.5;;;;;;;27.18;57.43457;940.5712;;;;
2023/09/07 10:12:44;;;;;;;4.8;4;;;;;;;27.37;56.19043;940.5837;;;;
2023/09/07 10:15:17;;;;;;;4.2;3.8;;;;;;;27.45;55.07324;940.5389;;;;
2023/09/07 10:17:46;;;;;;;5.2;3.7;;;;;;;27.62;55.24902;940.4601;;;;
2023/09/07 10:20:12;;;;;;;5.8;4.7;;;;;;;27.31;55.68359;940.4495;;;;
2023/09/07 10:22:37;;;;;;;4.3;3.8;;;;;;;27.46;58.46875;940.4317;;;;
2023/09/07 10:25:03;;;;;;;4.9;3.6;;;;;;;28.27;54.38867;940.4291;;;;
2023/09/07 10:27:28;;;;;;;4.2;3.8;;;;;;;28.57;55.66211;940.4715;;;;
2023/09/07 10:29:54;;;;;;;5.6;3.8;;;;;;;29.18;52.66504;940.3738;;;;
2023/09/07 10:32:18;;;;;;;4.2;3.8;;;;;;;29.46;50.94629;940.3858;;;;
2023/09/07 10:34:45;;;;;;;4.2;3.5;;;;;;;29.94;50.51074;940.3624;;;;
2023/09/07 10:37:10;;;;;;;5.5;3.5;;;;;;;29.99;52.19922;940.3674;;;;
2023/09/07 10:39:34;;;;;;;3.7;3.4;;;;;;;29.53;53.55273;940.255;;;;
2023/09/07 10:41:59;;;;;;;5.3;3.7;;;;;;;29.72;50.96387;940.2608;;;;
2023/09/07 10:44:27;;;;;;;4.9;3.6;;;;;;;30.24;49.5293;940.2325;;;;
2023/09/07 10:46:52;;;;;;;4.3;3.9;;;;;;;30.75;48.3418;940.1864;;;;
2023/09/07 10:49:17;;;;;;;4.1;3.7;;;;;;;30.54;50.53125;940.2058;;;;
2023/09/07 10:51:42;;;;;;;4.7;4;;;;;;;30.14;51.66797;940.1836;;;;
2023/09/07 10:54:07;;;;;;;4.5;4.1;;;;;;;30.43;50.94922;940.2045;;;;
2023/09/07 10:56:32;;;;;;;4;3.6;;;;;;;30.16;51.31152;940.1865;;;;
2023/09/07 10:58:59;;;;;;;5.5;3.7;;;;;;;30.95;48.44824;940.1534;;;;
2023/09/07 11:01:25;;;;;;;4.3;3.9;;;;;;;31.54;48.17578;940.1944;;;;
2023/09/07 11:03:50;;;;;;;4.3;3.9;;;;;;;32.33;46.44922;940.1398;;;;
2023/09/07 11:06:15;;;;;;;3.8;3.5;;;;;;;32.64;46.32422;940.1074;;;;
2023/09/07 11:08:41;;;;;;;4.2;3.8;;;;;;;32.9;45.22266;940.0983;;;;
2023/09/07 11:11:07;;;;;;;4.8;3.9;;;;;;;33.07;45.09473;940.0584;;;;
2023/09/07 11:13:32;;;;;;;5.4;3.4;;;;;;;34.06;42.71387;940.0474;;;;
2023/09/07 11:15:59;;;;;;;4.3;3.9;;;;;;;33.55;44.83008;940.0114;;;;
2023/09/07 11:18:23;;;;;;;4.4;3.6;;;;;;;33.35;45.4834;939.9696;;;;
2023/09/07 11:20:48;;;;;;;4.7;3.8;;;;;;;34.35;41.77637;939.9702;;;;
2023/09/07 11:23:14;;;;;;;4.4;4;;;;;;;35.36;40.54102;940.0037;;;;
2023/09/07 11:25:40;;;;;;;3.8;3.4;;;;;;;35.48;42.43555;939.9997;;;;
2023/09/07 11:28:05;;;;;;;4.9;3.6;;;;;;;34.63;42.89941;940.0009;;;;
2023/09/07 11:30:33;;;;;;;4.8;4;;;;;;;34.35;42.31836;939.943;;;;
2023/09/07 11:32:58;;;;;;;4.1;3.7;;;;;;;32.55;47.79102;940.0017;;;;
2023/09/07 11:35:23;;;;;;;4.1;3.7;;;;;;;30.8;52.7002;939.9821;;;;
2023/09/07 11:37:49;;;;;;;4.3;3.9;;;;;;;30.72;52.36621;939.9293;;;;
2023/09/07 11:40:14;;;;;;;4.2;3.6;;;;;;;29.55;56.27148;939.9586;;;;
2023/09/07 11:42:41;;;;;;;4;3.6;;;;;;;30.52;51.00586;939.8441;;;;
2023/09/07 11:45:06;;;;;;;4;3.5;;;;;;;30.08;52.97266;939.9321;;;;
2023/09/07 11:47:34;;;;;;;4.3;3.9;;;;;;;29.56;56.36914;939.8986;;;;
2023/09/07 11:49:57;;;;;;;4.1;3.7;;;;;;;29.6;54.06152;939.8763;;;;
2023/09/07 11:52:23;;;;;;;5.8;3.9;;;;;;;29.86;53.11523;939.9402;;;;
2023/09/07 11:54:49;;;;;;;4.1;3.7;;;;;;;30.03;51.60742;939.8086;;;;
2023/09/07 11:57:15;;;;;;;4.3;3.9;;;;;;;30.05;51.66992;939.8539;;;;
2023/09/07 11:59:39;;;;;;;4.1;3.3;;;;;;;29.21;57.04004;939.8131;;;;
2023/09/07 12:02:10;;;;;;;5.1;3.9;;;;;;;29.56;54.27148;939.8582;;;;
2023/09/07 12:04:33;;;;;;;4.5;4.1;;;;;;;29.31;55.27734;939.8315;;;;
2023/09/07 12:06:59;;;;;;;5.2;4;;;;;;;29.31;55.44531;939.7794;;;;
2023/09/07 12:09:24;;;;;;;4.3;3.6;;;;;;;29.29;55.95313;939.7885;;;;
2023/09/07 12:11:51;;;;;;;5.3;3.8;;;;;;;28.65;58.11133;939.783;;;;
2023/09/07 12:14:15;;;;;;;5.1;4;;;;;;;28.55;58.57422;939.7571;;;;
2023/09/07 12:16:43;;;;;;;4.7;4.2;;;;;;;28.27;58.20508;939.7146;;;;
2023/09/07 12:21:29;;;;;;;4.4;3.8;;;;;;;28.76;58.03125;939.6931;;;;
2023/09/07 12:23:54;;;;;;;6.5;4.4;;;;;;;28.6;60.8291;939.7211;;;;
2023/09/07 12:26:20;;;;;;;4.5;4.1;;;;;;;28.39;61.83398;939.6981;;;;
2023/09/07 12:28:44;;;;;;;4.7;4.2;;;;;;;28.43;59.24707;939.7262;;;;
2023/09/07 12:31:12;;;;;;;4.8;4.3;;;;;;;28.57;61.21777;939.7163;;;;
2023/09/07 12:33:37;;;;;;;7;4.4;;;;;;;28.43;63.46973;939.6637;;;;
2023/09/07 12:36:09;;;;;;;5;4.6;;;;;;;28.23;62.07324;939.6266;;;;
2023/09/07 12:38:30;;;;;;;5.2;4.1;;;;;;;28.31;60.52832;939.5502;;;;
2023/09/07 12:40:58;;;;;;;4.9;4.4;;;;;;;28.09;62.36426;939.5603;;;;
2023/09/07 12:43:24;;;;;;;6.7;4;;;;;;;27.94;64.11328;939.5195;;;;
2023/09/07 12:45:48;;;;;;;4.6;4.2;;;;;;;27.89;62.79883;939.5313;;;;
2023/09/07 12:48:13;;;;;;;5.1;4.2;;;;;;;27.86;61.70117;939.4897;;;;
2023/09/07 12:50:39;;;;;;;7.8;4.4;;;;;;;27.66;62.62402;939.5187;;;;
2023/09/07 12:53:06;;;;;;;4.9;4.2;;;;;;;27.83;61.7334;939.4822;;;;
2023/09/07 12:55:31;;;;;;;5;4.5;;;;;;;28.03;60.93066;939.4564;;;;
2023/09/07 12:57:57;;;;;;;4.8;4.3;;;;;;;27.95;62.87891;939.5576;;;;
2023/09/07 13:00:22;;;;;;;4.7;4.3;;;;;;;28.08;61.24512;939.5131;;;;
2023/09/07 13:02:49;;;;;;;4.7;4.2;;;;;;;27.85;62.77051;939.5345;;;;
2023/09/07 13:05:14;;;;;;;4.7;4.3;;;;;;;28.04;63.33008;939.5144;;;;
2023/09/07 13:07:44;;;;;;;4.9;4.2;;;;;;;28.22;61.09766;939.4813;;;;
2023/09/07 13:10:08;;;;;;;5.5;4.7;;;;;;;28.19;62.59082;939.4838;;;;
2023/09/07 13:12:36;;;;;;;5.9;4.7;;;;;;;28.22;60.29102;939.4925;;;;
2023/09/07 13:15:01;;;;;;;4.8;4.3;;;;;;;28.22;63.10547;939.5049;;;;
2023/09/07 13:17:30;;;;;;;5.6;4.8;;;;;;;28.02;61.67676;939.4802;;;;
2023/09/07 13:19:55;;;;;;;4.6;4.2;;;;;;;28.14;60.9082;939.4097;;;;
2023/09/07 13:22:21;;;;;;;5.2;4.4;;;;;;;28.41;60.07813;939.4633;;;;
2023/09/07 13:24:46;;;;;;;6;4.5;;;;;;;28.42;60.61328;939.4374;;;;
2023/09/07 13:27:11;;;;;;;5;4.4;;;;;;;28.14;61.55078;939.3642;;;;
2023/09/07 13:29:37;;;;;;;5.9;4.5;;;;;;;28.06;62.47852;939.3315;;;;
2023/09/07 13:32:03;;;;;;;5.5;4.6;;;;;;;28.02;64.01758;939.3528;;;;
2023/09/07 13:34:28;;;;;;;5.3;4.7;;;;;;;28.02;61.80664;939.3105;;;;
2023/09/07 13:36:55;;;;;;;5.7;4.5;;;;;;;28.1;63.92285;939.2732;;;;
2023/09/07 13:39:20;;;;;;;4.8;4.3;;;;;;;28.18;63.21973;939.2672;;;;
2023/09/07 13:41:46;;;;;;;7.7;4.5;;;;;;;28.05;63.9502;939.2892;;;;
2023/09/07 13:44:11;;;;;;;5.7;4.6;;;;;;;28.19;62.22363;939.2991;;;;
2023/09/07 13:46:38;;;;;;;5;4.5;;;;;;;28.28;61.75977;939.2285;;;;
2023/09/07 13:49:03;;;;;;;6.5;4.5;;;;;;;28.19;61.17676;939.2878;;;;
2023/09/07 13:51:31;;;;;;;4.8;4.3;;;;;;;28.11;62.50879;939.2687;;;;
2023/09/07 13:53:54;;;;;;;5.7;4.6;;;;;;;28.32;63.02637;939.2891;;;;
2023/09/07 13:56:19;;;;;;;5.4;4.8;;;;;;;28.31;61.1582;939.262;;;;
2023/09/07 13:58:44;;;;;;;5;4.5;;;;;;;28.48;60.68066;939.2408;;;;
2023/09/07 14:01:12;;;;;;;5;4.5;;;;;;;28.24;62.76367;939.3059;;;;
2023/09/07 14:03:37;;;;;;;5;4.5;;;;;;;28.17;62.87402;939.2874;;;;
2023/09/07 14:06:06;;;;;;;5.8;4.9;;;;;;;27.9;62.5625;939.2821;;;;
2023/09/07 14:08:33;;;;;;;5;4.4;;;;;;;27.98;62.85938;939.264;;;;
2023/09/07 14:10:56;;;;;;;5.9;4.6;;;;;;;28.07;61.80273;939.2399;;;;
2023/09/07 14:13:21;;;;;;;4.9;4.2;;;;;;;28.09;62.32813;939.2648;;;;
2023/09/07 14:15:46;;;;;;;4.9;4.4;;;;;;;28.05;62.26172;939.3264;;;;
2023/09/07 14:18:13;;;;;;;5.1;4.6;;;;;;;27.89;62.51367;939.3155;;;;
2023/09/07 14:20:38;;;;;;;6.1;4.9;;;;;;;27.98;63.50098;939.2609;;;;
2023/09/07 14:23:03;;;;;;;6.2;4.5;;;;;;;28.05;62.07324;939.2885;;;;
2023/09/07 14:25:28;;;;;;;5;4.3;;;;;;;27.94;62.42578;939.212;;;;
2023/09/07 14:27:55;;;;;;;5.5;4.7;;;;;;;27.89;65.05566;939.2876;;;;
2023/09/07 14:30:21;;;;;;;5.4;4.6;;;;;;;27.91;62.5166;939.2567;;;;
2023/09/07 14:32:48;;;;;;;5.3;4.3;;;;;;;28.04;62.95117;939.2744;;;;
2023/09/07 14:35:12;;;;;;;5.2;4.6;;;;;;;28.05;62.19238;939.2427;;;;
2023/09/07 14:37:37;;;;;;;5.3;4.5;;;;;;;28.11;61.30859;939.2181;;;;
2023/09/07 14:40:02;;;;;;;4.9;4.4;;;;;;;28.05;62.53516;939.243;;;;
2023/09/07 14:42:29;;;;;;;5.7;4.4;;;;;;;28.02;62.65039;939.2729;;;;
2023/09/07 14:44:57;;;;;;;5.3;4.4;;;;;;;28.12;61.96289;939.2307;;;;
2023/09/07 14:47:24;;;;;;;7.4;4.6;;;;;;;28.12;62.62891;939.247;;;;
2023/09/07 14:49:45;;;;;;;5.9;4.5;;;;;;;27.92;62.43555;939.2292;;;;
2023/09/07 14:52:11;;;;;;;4.9;4.4;;;;;;;27.87;61.75195;939.2213;;;;
2023/09/07 14:54:36;;;;;;;5;4.5;;;;;;;27.71;63.9502;939.2661;;;;
2023/09/07 14:57:03;;;;;;;5.9;4.6;;;;;;;27.69;63.35254;939.2813;;;;
2023/09/07 14:59:30;;;;;;;5.6;4.8;;;;;;;27.75;62.2207;939.2527;;;;
2023/09/07 15:01:54;;;;;;;5.4;4.8;;;;;;;27.72;64.16504;939.3301;;;;
2023/09/07 15:04:20;;;;;;;5.2;4.7;;;;;;;27.72;63.02441;939.2803;;;;
2023/09/07 15:06:45;;;;;;;7.5;4.8;;;;;;;27.77;61.91504;939.3253;;;;
2023/09/07 15:09:12;;;;;;;5.4;4.5;;;;;;;27.83;61.81641;939.312;;;;
2023/09/07 15:11:37;;;;;;;12;6.9;;;;;;;27.79;62.07324;939.2838;;;;
2023/09/07 15:14:03;;;;;;;12.2;6.6;;;;;;;27.55;62.52539;939.2614;;;;
2023/09/07 15:16:27;;;;;;;6.4;5.4;;;;;;;27.51;63.44531;939.2932;;;;
2023/09/07 15:18:55;;;;;;;6.5;5.2;;;;;;;27.54;63.36816;939.2608;;;;
2023/09/07 15:21:20;;;;;;;10.6;7.1;;;;;;;27.35;64.5498;939.2514;;;;
2023/09/07 15:23:45;;;;;;;6.4;4.5;;;;;;;27.47;64.12793;939.2888;;;;
2023/09/07 15:26:10;;;;;;;5.6;5.1;;;;;;;27.38;64.24707;939.3289;;;;
2023/09/07 15:28:37;;;;;;;7.2;5.9;;;;;;;27.31;64.74609;939.2723;;;;
2023/09/07 15:31:02;;;;;;;8.1;6;;;;;;;27.37;63.98438;939.2944;;;;
2023/09/07 15:33:28;;;;;;;6.2;4.7;;;;;;;27.19;65.2041;939.3292;;;;
2023/09/07 15:35:54;;;;;;;12.8;5.3;;;;;;;27.12;64.70703;939.3353;;;;
2023/09/07 15:38:19;;;;;;;5.7;5.1;;;;;;;27.01;66.04297;939.3311;;;;
2023/09/07 15:40:45;;;;;;;6.3;5.2;;;;;;;27.04;65.52539;939.3399;;;;